createdAt,value
2023-05-08T00:01:02.081Z,4.63
2023-05-08T00:03:29.210Z,5.70
2023-05-08T00:05:56.084Z,5.20
2023-05-08T00:08:23.281Z,5.47
2023-05-08T00:10:50.142Z,5.00
2023-05-08T00:13:17.227Z,5.35
2023-05-08T00:15:44.176Z,5.35
2023-05-08T00:18:11.914Z,6.07
2023-05-08T00:20:38.854Z,6.47
2023-05-08T00:23:05.910Z,7.25
2023-05-08T00:25:32.815Z,9.70
2023-05-08T00:28:00.281Z,11.68
2023-05-08T00:30:27.623Z,11.73
2023-05-08T00:32:54.921Z,11.35
2023-05-08T00:35:22.112Z,11.48
2023-05-08T00:37:49.123Z,12.45
2023-05-08T00:40:16.182Z,12.35
2023-05-08T00:42:43.317Z,13.02
2023-05-08T00:45:10.730Z,16.50
2023-05-08T00:47:38.548Z,11.82
2023-05-08T00:50:06.069Z,13.75
2023-05-08T00:52:33.325Z,10.63
2023-05-08T00:55:02.240Z,12.38
2023-05-08T00:57:32.455Z,10.68
2023-05-08T01:00:01.732Z,9.75
2023-05-08T01:02:31.650Z,9.43
2023-05-08T01:04:58.854Z,10.40
2023-05-08T01:07:26.143Z,8.98
2023-05-08T01:09:53.527Z,7.60
2023-05-08T01:12:57.842Z,9.60
2023-05-08T01:15:32.931Z,7.78
2023-05-08T01:18:11.902Z,9.43
2023-05-08T01:20:55.709Z,8.07
2023-05-08T01:23:41.680Z,7.65
2023-05-08T01:26:30.465Z,7.07
2023-05-08T01:29:10.728Z,8.30
2023-05-08T01:32:06.855Z,10.98
2023-05-08T01:34:37.019Z,10.45
2023-05-08T01:37:17.383Z,13.25
2023-05-08T01:40:11.780Z,10.50
2023-05-08T01:42:58.116Z,11.40
2023-05-08T01:45:39.549Z,10.52
2023-05-08T01:48:35.563Z,11.27
2023-05-08T01:51:14.226Z,9.93
2023-05-08T01:53:49.617Z,10.10
2023-05-08T01:56:22.262Z,10.52
2023-05-08T01:58:53.023Z,10.80
2023-05-08T02:01:23.642Z,10.70
2023-05-08T02:03:51.991Z,11.00
2023-05-08T02:06:22.020Z,11.75
2023-05-08T02:08:50.466Z,12.02
2023-05-08T02:11:19.752Z,11.15
2023-05-08T02:13:48.974Z,8.00
2023-05-08T02:16:17.157Z,6.97
2023-05-08T02:18:50.560Z,7.53
2023-05-08T02:21:18.761Z,9.13
2023-05-08T02:23:46.813Z,10.13
2023-05-08T02:26:16.018Z,9.85
2023-05-08T02:28:43.428Z,11.20
2023-05-08T02:31:12.877Z,10.50
2023-05-08T02:33:44.083Z,9.05
2023-05-08T02:36:15.793Z,10.02
2023-05-08T02:38:44.817Z,10.55
2023-05-08T02:41:14.137Z,8.43
2023-05-08T02:43:41.900Z,7.78
2023-05-08T02:46:40.235Z,9.82
2023-05-08T02:49:23.246Z,11.05
2023-05-08T02:52:13.876Z,9.23
2023-05-08T02:54:55.741Z,9.13
2023-05-08T02:57:30.130Z,11.23
2023-05-08T03:00:05.283Z,8.60
2023-05-08T03:02:40.577Z,9.82
2023-05-08T03:05:11.826Z,10.65
2023-05-08T03:07:41.279Z,10.48
2023-05-08T03:10:16.762Z,11.25
2023-05-08T03:12:49.137Z,8.98
2023-05-08T03:15:46.253Z,12.13
2023-05-08T03:18:19.980Z,12.88
2023-05-08T03:20:51.228Z,12.32
2023-05-08T03:23:21.733Z,12.85
2023-05-08T03:25:48.929Z,8.65
2023-05-08T03:28:17.811Z,11.02
2023-05-08T03:30:45.303Z,10.63
2023-05-08T03:33:15.251Z,13.38
2023-05-08T03:35:42.913Z,10.77
2023-05-08T03:38:10.600Z,9.50
2023-05-08T03:40:42.729Z,7.88
2023-05-08T03:43:11.412Z,10.73
2023-05-08T03:45:40.694Z,9.50
2023-05-08T03:48:09.119Z,7.47
2023-05-08T03:50:39.877Z,8.25
2023-05-08T03:53:09.399Z,7.55
2023-05-08T03:55:36.809Z,7.32
2023-05-08T03:58:21.599Z,7.63
2023-05-08T04:01:39.991Z,7.57
2023-05-08T04:04:17.417Z,7.68
2023-05-08T04:06:51.467Z,9.48
2023-05-08T04:09:37.336Z,9.38
2023-05-08T04:12:18.699Z,7.95
2023-05-08T04:15:00.612Z,7.57
2023-05-08T04:17:40.670Z,8.50
2023-05-08T04:20:12.421Z,7.05
2023-05-08T04:22:41.150Z,8.13
2023-05-08T04:25:10.535Z,7.57
2023-05-08T04:27:38.671Z,7.43
2023-05-08T04:30:08.418Z,8.70
2023-05-08T04:32:38.306Z,9.05
2023-05-08T04:35:07.487Z,8.40
2023-05-08T04:37:35.152Z,7.18
2023-05-08T04:40:05.042Z,9.27
2023-05-08T04:42:36.491Z,9.60
2023-05-08T04:45:04.148Z,8.35
2023-05-08T04:47:34.080Z,10.45
2023-05-08T04:50:11.337Z,10.20
2023-05-08T04:52:38.193Z,10.73
2023-05-08T04:55:06.864Z,11.82
2023-05-08T04:57:38.783Z,12.45
2023-05-08T05:00:06.608Z,11.77
2023-05-08T05:02:37.756Z,11.70
2023-05-08T05:05:05.835Z,11.50
2023-05-08T05:07:32.602Z,11.48
2023-05-08T05:10:00.624Z,11.23
2023-05-08T05:12:28.109Z,10.73
2023-05-08T05:14:55.245Z,10.65
2023-05-08T05:17:22.996Z,10.90
2023-05-08T05:19:53.372Z,9.60
2023-05-08T05:22:20.919Z,11.32
2023-05-08T05:24:47.750Z,10.77
2023-05-08T05:27:19.896Z,9.88
2023-05-08T05:29:48.448Z,8.25
2023-05-08T05:32:15.492Z,9.20
2023-05-08T05:34:42.937Z,9.35
2023-05-08T05:37:10.243Z,9.98
2023-05-08T05:39:38.038Z,9.70
2023-05-08T05:42:05.715Z,10.18
2023-05-08T05:44:32.777Z,10.02
2023-05-08T05:47:00.366Z,10.48
2023-05-08T05:49:27.391Z,10.45
2023-05-08T05:51:54.343Z,12.15
2023-05-08T05:54:21.294Z,10.43
2023-05-08T05:56:48.550Z,11.52
2023-05-08T05:59:15.609Z,12.80
2023-05-08T06:01:42.535Z,11.85
2023-05-08T06:04:09.520Z,11.90
2023-05-08T06:06:39.378Z,13.60
2023-05-08T06:09:07.105Z,12.25
2023-05-08T06:11:37.017Z,13.10
2023-05-08T06:14:06.512Z,14.75
2023-05-08T06:16:35.462Z,16.63
2023-05-08T06:19:02.317Z,16.42
2023-05-08T06:21:29.122Z,16.30
2023-05-08T06:23:56.216Z,16.50
2023-05-08T06:26:23.631Z,16.38
2023-05-08T06:28:50.555Z,15.45
2023-05-08T06:31:17.583Z,15.20
2023-05-08T06:33:44.547Z,17.10
2023-05-08T06:36:11.680Z,17.13
2023-05-08T06:38:38.461Z,17.13
2023-05-08T06:41:05.364Z,16.98
2023-05-08T06:43:32.338Z,17.95
2023-05-08T06:45:59.267Z,18.20
2023-05-08T06:48:29.103Z,16.10
2023-05-08T06:50:56.512Z,17.52
2023-05-08T06:53:23.520Z,17.80
2023-05-08T06:55:51.333Z,18.67
2023-05-08T06:58:18.182Z,17.95
2023-05-08T07:00:44.993Z,19.45
2023-05-08T07:03:11.878Z,19.65
2023-05-08T07:05:38.699Z,18.73
2023-05-08T07:08:05.662Z,18.98
2023-05-08T07:10:33.561Z,17.83
2023-05-08T07:13:00.508Z,22.10
2023-05-08T07:15:27.433Z,23.25
2023-05-08T07:17:54.571Z,23.08
2023-05-08T07:20:22.044Z,22.25
2023-05-08T07:22:49.038Z,23.70
2023-05-08T07:25:16.217Z,22.83
2023-05-08T07:27:43.609Z,25.95
2023-05-08T07:30:11.059Z,26.77
2023-05-08T07:32:39.393Z,29.15
2023-05-08T07:35:10.805Z,27.65
2023-05-08T07:37:41.392Z,29.38
2023-05-08T07:40:08.990Z,28.98
2023-05-08T07:42:40.704Z,27.45
2023-05-08T07:45:09.239Z,30.10
2023-05-08T07:47:36.226Z,25.85
2023-05-08T07:50:03.739Z,26.65
2023-05-08T07:52:30.774Z,28.77
2023-05-08T07:55:00.143Z,29.73
2023-05-08T07:57:26.987Z,28.55
2023-05-08T07:59:53.726Z,28.00
2023-05-08T08:02:21.644Z,26.45
2023-05-08T08:04:51.260Z,23.63
2023-05-08T08:07:18.211Z,25.80
2023-05-08T08:09:45.017Z,24.00
2023-05-08T08:12:12.130Z,24.73
2023-05-08T08:14:39.171Z,26.63
2023-05-08T08:17:06.113Z,26.13
2023-05-08T08:19:33.004Z,27.08
2023-05-08T08:22:02.836Z,24.92
2023-05-08T08:24:29.828Z,24.35
2023-05-08T08:26:56.638Z,22.27
2023-05-08T08:29:26.187Z,25.25
2023-05-08T08:31:52.980Z,22.85
2023-05-08T08:34:19.831Z,23.63
2023-05-08T08:36:46.554Z,21.63
2023-05-08T08:39:16.207Z,21.33
2023-05-08T08:41:43.050Z,23.23
2023-05-08T08:44:09.809Z,22.17
2023-05-08T08:46:44.082Z,21.83
2023-05-08T08:49:17.740Z,23.25
2023-05-08T08:51:55.732Z,23.23
2023-05-08T08:54:28.296Z,22.98
2023-05-08T08:56:57.094Z,21.90
2023-05-08T08:59:25.983Z,22.67
2023-05-08T09:01:56.950Z,19.75
2023-05-08T09:04:27.276Z,19.33
2023-05-08T09:06:54.948Z,19.60
2023-05-08T09:09:22.657Z,22.02
2023-05-08T09:11:51.706Z,20.05
2023-05-08T09:14:19.048Z,20.60
2023-05-08T09:16:45.802Z,17.20
2023-05-08T09:19:15.897Z,16.55
2023-05-08T09:21:43.195Z,16.63
2023-05-08T09:24:10.076Z,15.55
2023-05-08T09:26:41.458Z,17.25
2023-05-08T09:29:20.074Z,17.38
2023-05-08T09:31:49.065Z,17.50
2023-05-08T09:34:30.500Z,18.08
2023-05-08T09:37:17.526Z,19.37
2023-05-08T09:39:46.636Z,18.23
2023-05-08T09:42:14.207Z,18.85
2023-05-08T09:44:46.088Z,19.17
2023-05-08T09:47:14.975Z,19.08
2023-05-08T09:50:05.113Z,19.58
2023-05-08T09:52:35.687Z,21.10
2023-05-08T09:55:09.512Z,21.20
2023-05-08T09:57:39.835Z,21.60
2023-05-08T10:00:09.835Z,22.17
2023-05-08T10:02:41.811Z,23.73
2023-05-08T10:05:47.339Z,22.33
2023-05-08T10:08:21.916Z,22.27
2023-05-08T10:10:49.069Z,23.02
2023-05-08T10:13:15.999Z,25.63
2023-05-08T10:15:44.650Z,22.35
2023-05-08T10:18:14.622Z,22.90
2023-05-08T10:20:44.430Z,23.25
2023-05-08T10:23:17.346Z,23.58
2023-05-08T10:25:52.760Z,25.13
2023-05-08T10:28:31.992Z,28.10
2023-05-08T10:31:05.346Z,31.70
2023-05-08T10:33:34.777Z,38.85
2023-05-08T10:36:04.882Z,39.67
2023-05-08T10:38:33.400Z,37.95
2023-05-08T10:41:01.533Z,40.65
2023-05-08T10:43:31.468Z,39.38
2023-05-08T10:46:04.977Z,38.70
2023-05-08T10:48:36.629Z,39.30
2023-05-08T10:51:10.304Z,37.60
2023-05-08T10:53:51.391Z,36.15
2023-05-08T10:56:18.236Z,38.03
2023-05-08T10:58:45.010Z,42.03
2023-05-08T11:01:13.160Z,41.47
2023-05-08T11:03:45.726Z,42.83
2023-05-08T11:06:13.489Z,47.40
2023-05-08T11:08:51.960Z,44.45
2023-05-08T11:11:51.178Z,45.08
2023-05-08T11:14:19.628Z,41.17
2023-05-08T11:17:02.294Z,39.08
2023-05-08T11:19:29.709Z,43.55
2023-05-08T11:22:14.325Z,43.15
2023-05-08T11:24:48.739Z,43.45
2023-05-08T11:27:19.511Z,44.22
2023-05-08T11:30:20.906Z,42.10
2023-05-08T11:33:14.407Z,44.13
2023-05-08T11:35:47.439Z,46.85
2023-05-08T11:38:28.307Z,43.83
2023-05-08T11:40:58.545Z,44.97
2023-05-08T11:43:36.302Z,51.33
2023-05-08T11:46:05.778Z,50.97
2023-05-08T11:48:33.465Z,45.55
2023-05-08T11:51:01.134Z,44.50
2023-05-08T11:53:28.920Z,43.75
2023-05-08T11:56:14.806Z,44.35
2023-05-08T11:58:42.056Z,41.83
2023-05-08T12:01:08.988Z,40.92
2023-05-08T12:03:36.262Z,44.17
2023-05-08T12:06:04.943Z,42.03
2023-05-08T12:08:32.546Z,40.70
2023-05-08T12:11:00.025Z,39.72
2023-05-08T12:13:29.138Z,39.22
2023-05-08T12:16:03.597Z,37.85
2023-05-08T12:18:30.886Z,38.08
2023-05-08T12:21:01.704Z,36.83
2023-05-08T12:23:30.916Z,37.45
2023-05-08T12:26:02.346Z,35.80
2023-05-08T12:28:30.329Z,33.53
2023-05-08T12:30:57.874Z,31.70
2023-05-08T12:33:25.687Z,33.70
2023-05-08T12:35:52.833Z,31.40
2023-05-08T12:38:19.669Z,30.15
2023-05-08T12:40:50.100Z,31.52
2023-05-08T12:43:17.196Z,30.08
2023-05-08T12:45:44.256Z,32.35
2023-05-08T12:48:18.208Z,31.00
2023-05-08T12:50:49.024Z,26.42
2023-05-08T12:53:17.894Z,26.35
2023-05-08T12:56:11.187Z,28.40
2023-05-08T12:58:38.512Z,27.77
2023-05-08T13:01:12.989Z,28.15
2023-05-08T13:03:43.249Z,27.63
2023-05-08T13:06:21.405Z,28.08
2023-05-08T13:08:55.044Z,27.92
2023-05-08T13:11:33.135Z,29.17
2023-05-08T13:14:00.699Z,31.00
2023-05-08T13:16:27.755Z,29.60
2023-05-08T13:18:54.719Z,29.52
2023-05-08T13:21:21.584Z,28.45
2023-05-08T13:23:48.455Z,27.25
2023-05-08T13:26:15.444Z,27.52
2023-05-08T13:28:42.273Z,26.05
2023-05-08T13:31:09.203Z,28.45
2023-05-08T13:33:38.184Z,27.27
2023-05-08T13:36:05.278Z,27.17
2023-05-08T13:38:32.124Z,29.90
2023-05-08T13:41:19.928Z,27.45
2023-05-08T13:43:47.776Z,27.40
2023-05-08T13:46:14.755Z,28.60
2023-05-08T13:48:41.734Z,29.80
2023-05-08T13:51:08.576Z,29.27
2023-05-08T13:53:37.774Z,29.08
2023-05-08T13:56:04.884Z,31.33
2023-05-08T13:58:32.285Z,32.28
2023-05-08T14:01:07.493Z,31.23
2023-05-08T14:03:41.629Z,32.42
2023-05-08T14:06:08.637Z,30.40
2023-05-08T14:08:44.717Z,27.80
2023-05-08T14:11:12.872Z,29.83
2023-05-08T14:13:41.374Z,29.70
2023-05-08T14:16:10.447Z,29.77
2023-05-08T14:18:37.885Z,32.00
2023-05-08T14:21:04.834Z,28.67
2023-05-08T14:23:31.684Z,27.10
2023-05-08T14:25:58.461Z,27.40
2023-05-08T14:28:25.237Z,27.42
2023-05-08T14:30:52.089Z,25.40
2023-05-08T14:33:19.576Z,29.00
2023-05-08T14:35:48.485Z,29.75
2023-05-08T14:38:15.496Z,31.48
2023-05-08T14:40:42.305Z,27.55
2023-05-08T14:43:09.295Z,29.25
2023-05-08T14:45:36.249Z,26.48
2023-05-08T14:48:03.162Z,26.27
2023-05-08T14:50:30.483Z,28.20
2023-05-08T14:52:57.453Z,25.20
2023-05-08T14:55:24.969Z,28.17
2023-05-08T14:57:52.233Z,26.70
2023-05-08T15:00:20.775Z,26.55
2023-05-08T15:02:47.909Z,25.50
2023-05-08T15:05:20.179Z,26.42
2023-05-08T15:07:49.902Z,27.40
2023-05-08T15:10:16.951Z,27.20
2023-05-08T15:12:44.054Z,28.80
2023-05-08T15:15:11.489Z,27.25
2023-05-08T15:17:41.540Z,26.95
2023-05-08T15:20:11.258Z,28.60
2023-05-08T15:22:38.339Z,26.38
2023-05-08T15:25:06.296Z,28.95
2023-05-08T15:27:33.140Z,26.58
2023-05-08T15:30:00.000Z,26.35
2023-05-08T15:32:27.109Z,27.75
2023-05-08T15:34:54.158Z,27.48
2023-05-08T15:37:21.193Z,26.00
2023-05-08T15:39:49.786Z,27.27
2023-05-08T15:42:16.735Z,26.27
2023-05-08T15:44:54.455Z,26.13
2023-05-08T15:47:23.376Z,26.92
2023-05-08T15:49:51.114Z,27.20
2023-05-08T15:52:19.631Z,28.00
2023-05-08T15:54:47.253Z,26.52
2023-05-08T15:57:14.208Z,27.08
2023-05-08T15:59:41.225Z,26.70
2023-05-08T16:02:08.805Z,28.95
2023-05-08T16:04:36.301Z,29.05
2023-05-08T16:07:03.327Z,28.00
2023-05-08T16:09:30.334Z,32.45
2023-05-08T16:12:00.126Z,29.13
2023-05-08T16:14:27.165Z,29.38
2023-05-08T16:16:54.148Z,32.35
2023-05-08T16:19:21.026Z,31.58
2023-05-08T16:21:48.037Z,32.08
2023-05-08T16:24:14.936Z,32.67
2023-05-08T16:26:41.886Z,33.72
2023-05-08T16:29:08.737Z,33.65
2023-05-08T16:31:35.871Z,32.33
2023-05-08T16:34:02.867Z,34.28
2023-05-08T16:36:29.826Z,35.35
2023-05-08T16:38:56.632Z,35.47
2023-05-08T16:41:24.208Z,36.80
2023-05-08T16:43:51.726Z,36.60
2023-05-08T16:46:29.228Z,40.70
2023-05-08T16:48:57.076Z,43.83
2023-05-08T16:51:23.842Z,43.75
2023-05-08T16:53:50.905Z,46.20
2023-05-08T16:56:18.099Z,49.80
2023-05-08T16:58:45.086Z,50.40
2023-05-08T17:01:11.984Z,53.15
2023-05-08T17:03:39.025Z,55.00
2023-05-08T17:06:09.584Z,53.67
2023-05-08T17:08:36.387Z,55.28
2023-05-08T17:11:05.984Z,58.05
2023-05-08T17:13:32.984Z,57.22
2023-05-08T17:16:00.180Z,53.70
2023-05-08T17:18:27.103Z,53.08
2023-05-08T17:20:54.197Z,54.80
2023-05-08T17:23:21.154Z,57.83
2023-05-08T17:25:47.965Z,59.88
2023-05-08T17:28:15.019Z,59.80
2023-05-08T17:30:41.782Z,59.03
2023-05-08T17:33:08.897Z,59.95
2023-05-08T17:35:36.162Z,59.60
2023-05-08T17:38:03.180Z,58.42
2023-05-08T17:40:30.692Z,57.88
2023-05-08T17:43:00.111Z,55.85
2023-05-08T17:45:27.219Z,53.08
2023-05-08T17:47:54.183Z,51.35
2023-05-08T17:50:21.143Z,51.03
2023-05-08T17:52:48.079Z,49.00
2023-05-08T17:55:14.844Z,49.53
2023-05-08T17:57:41.637Z,44.42
2023-05-08T18:00:09.071Z,41.67
2023-05-08T18:02:36.411Z,43.53
2023-05-08T18:05:03.571Z,40.08
2023-05-08T18:07:30.534Z,44.13
2023-05-08T18:09:58.019Z,40.65
2023-05-08T18:12:24.982Z,42.22
2023-05-08T18:14:52.208Z,40.90
2023-05-08T18:17:19.507Z,42.67
2023-05-08T18:19:48.968Z,43.22
2023-05-08T18:22:15.828Z,44.53
2023-05-08T18:24:43.198Z,40.05
2023-05-08T18:27:37.804Z,39.72
2023-05-08T18:30:09.688Z,39.40
2023-05-08T18:32:53.314Z,42.15
2023-05-08T18:35:45.235Z,40.75
2023-05-08T18:38:12.293Z,33.15
2023-05-08T18:40:48.098Z,35.28
2023-05-08T18:43:41.784Z,37.08
2023-05-08T18:46:38.922Z,33.55
2023-05-08T18:49:06.279Z,35.25
2023-05-08T18:51:34.603Z,31.60
2023-05-08T18:54:01.678Z,32.08
2023-05-08T18:56:34.421Z,33.60
2023-05-08T18:59:51.118Z,32.50
2023-05-08T19:02:21.528Z,31.60
2023-05-08T19:08:24.720Z,27.55
2023-05-08T19:10:53.428Z,29.83
2023-05-08T19:16:13.609Z,27.63
2023-05-08T19:18:40.606Z,27.25
2023-05-08T19:21:07.776Z,28.60
2023-05-08T19:23:35.014Z,27.45
2023-05-08T19:26:01.967Z,27.10
2023-05-08T19:28:29.639Z,27.05
2023-05-08T19:30:57.046Z,26.95
2023-05-08T19:33:23.912Z,26.02
2023-05-08T19:35:50.818Z,26.95
2023-05-08T19:38:17.746Z,27.83
2023-05-08T19:40:56.331Z,27.80
2023-05-08T19:43:25.717Z,27.17
2023-05-08T19:45:52.994Z,27.25
2023-05-08T19:48:20.304Z,28.30
2023-05-08T19:50:47.428Z,27.83
2023-05-08T19:53:16.041Z,27.80
2023-05-08T19:55:42.942Z,28.27
2023-05-08T19:58:09.855Z,27.63
2023-05-08T20:00:36.914Z,28.30
2023-05-08T20:03:04.108Z,27.75
2023-05-08T20:05:32.065Z,27.67
2023-05-08T20:07:59.057Z,29.67
2023-05-08T20:10:26.130Z,29.30
2023-05-08T20:12:53.202Z,26.65
2023-05-08T20:15:20.556Z,27.13
2023-05-08T20:17:47.527Z,26.88
2023-05-08T20:20:14.910Z,28.25
2023-05-08T20:22:42.057Z,27.73
2023-05-08T20:25:09.028Z,28.05
2023-05-08T20:27:37.093Z,27.58
2023-05-08T20:30:05.091Z,29.02
2023-05-08T20:32:32.023Z,27.42
2023-05-08T20:34:59.028Z,26.77
2023-05-08T20:37:26.019Z,28.13
2023-05-08T20:39:53.212Z,25.63
2023-05-08T20:42:20.081Z,24.88
2023-05-08T20:44:46.933Z,27.10
2023-05-08T20:47:14.693Z,28.58
2023-05-08T20:49:41.463Z,27.95
2023-05-08T20:52:08.657Z,27.23
2023-05-08T20:54:35.720Z,27.77
2023-05-08T20:57:03.214Z,28.85
2023-05-08T20:59:30.206Z,30.55
2023-05-08T21:01:56.987Z,29.25
2023-05-08T21:04:23.847Z,26.50
2023-05-08T21:06:52.103Z,28.27
2023-05-08T21:09:19.274Z,28.45
2023-05-08T21:11:46.073Z,28.95
2023-05-08T21:14:13.106Z,28.60
2023-05-08T21:16:42.436Z,28.10
2023-05-08T21:19:11.359Z,29.35
2023-05-08T21:21:38.173Z,30.52
2023-05-08T21:24:05.413Z,30.13
2023-05-08T21:26:32.217Z,29.63
2023-05-08T21:29:00.966Z,30.33
2023-05-08T21:31:28.883Z,29.10
2023-05-08T21:33:55.797Z,31.30
2023-05-08T21:36:22.706Z,30.58
2023-05-08T21:38:49.580Z,29.10
2023-05-08T21:41:16.455Z,29.10
2023-05-08T21:43:43.242Z,30.42
2023-05-08T21:46:10.190Z,29.50
2023-05-08T21:48:37.206Z,30.27
2023-05-08T21:51:05.464Z,29.40
2023-05-08T21:53:32.490Z,31.65
2023-05-08T21:55:59.822Z,31.38
2023-05-08T21:58:26.647Z,31.08
2023-05-08T22:00:58.409Z,32.38
2023-05-08T22:03:25.799Z,31.00
2023-05-08T22:05:55.843Z,32.38
2023-05-08T22:08:22.731Z,31.55
2023-05-08T22:10:50.448Z,30.77
2023-05-08T22:13:17.408Z,32.55
2023-05-08T22:15:44.307Z,31.02
2023-05-08T22:18:11.204Z,32.28
2023-05-08T22:20:38.013Z,32.05
2023-05-08T22:23:04.998Z,32.85
2023-05-08T22:25:31.957Z,31.95
2023-05-08T22:27:58.758Z,32.50
2023-05-08T22:30:25.740Z,33.03
2023-05-08T22:32:57.353Z,32.70
2023-05-08T22:35:26.937Z,32.72
2023-05-08T22:37:54.707Z,32.80
2023-05-08T22:40:22.320Z,31.23
2023-05-08T22:42:51.688Z,34.20
2023-05-08T22:45:19.389Z,34.20
2023-05-08T22:47:46.263Z,31.85
2023-05-08T22:50:13.138Z,32.05
2023-05-08T22:52:42.959Z,35.13
2023-05-08T22:55:09.954Z,33.38
2023-05-08T22:57:36.843Z,33.88
2023-05-08T23:00:04.369Z,33.78
2023-05-08T23:02:35.263Z,32.80
2023-05-08T23:05:02.297Z,31.55
2023-05-08T23:07:29.688Z,31.20
2023-05-08T23:09:56.728Z,34.25
2023-05-08T23:12:23.737Z,33.70
2023-05-08T23:14:50.875Z,33.70
2023-05-08T23:17:17.854Z,32.17
2023-05-08T23:19:45.987Z,34.38
2023-05-08T23:22:13.240Z,32.78
2023-05-08T23:24:43.026Z,33.47
2023-05-08T23:27:09.989Z,33.58
2023-05-08T23:29:37.143Z,33.55
2023-05-08T23:32:04.062Z,32.88
2023-05-08T23:34:31.005Z,31.50
2023-05-08T23:36:57.957Z,33.00
2023-05-08T23:39:27.406Z,31.80
2023-05-08T23:41:54.603Z,32.28
2023-05-08T23:44:21.622Z,34.65
2023-05-08T23:46:49.649Z,33.47
2023-05-08T23:49:16.738Z,34.33
2023-05-08T23:51:43.968Z,34.58
2023-05-08T23:54:10.909Z,36.35
2023-05-08T23:56:37.706Z,34.95
2023-05-08T23:59:04.511Z,38.25
